Terminal Aerodrome Forecast
Issued by NWS Wilmington, OH

Current Version | Previous Version | Graphics & Text | Print | Product List | Glossary On
Versions: 1 2 3 4 5 6 7 8 9 10 11 12 13 14 15 16 17
000
FTUS41 KILN 190352 AAC
TAFILN
TAF AMD
KILN 190352Z 1904/1924 31020G30KT P6SM OVC022
      TEMPO 1904/1908 5SM -DZ BR OVC015
     FM190800 30018G26KT P6SM OVC015
     FM191200 30013G22KT P6SM OVC025
     FM192100 29013G21KT P6SM BKN035
     FM192300 28011KT P6SM SCT250=

USA.gov is the U.S. government's official web portal to all federal, state and local government web resources and services.